Time;durP1;ratioP1;P1;durP2;ratioP2;P2;SDS_P1;SDS_P2;PMS_P1;PMS_P2;Temp;Humidity;BMP_temperature;BMP_pressure;BME280_temperature;BME280_humidity;BME280_pressure;Samples;Min_cycle;Max_cycle;Signal;HPM_P1;HPM_P2
2024/03/30 00:02:55;;;;;;;1.35;0.90;;;;;;;13.39;72.70;98134.41;6070141;23;20050;-92
2024/03/30 00:08:35;;;;;;;1.80;1.10;;;;;;;13.40;72.86;98128.97;6040114;23;20026;-92
2024/03/30 00:11:02;;;;;;;1.40;1.10;;;;;;;13.41;72.79;98119.22;6016469;23;20023;-92
2024/03/30 00:17:58;;;;;;;2.00;1.17;;;;;;;13.42;71.00;98108.50;6066032;23;20025;-92
2024/03/30 00:23:55;;;;;;;1.95;1.00;;;;;;;13.46;71.34;98119.63;6039753;23;20466;-92
2024/03/30 00:26:21;;;;;;;1.42;1.08;;;;;;;13.50;72.92;98123.66;6019619;23;20484;-92
2024/03/30 00:28:46;;;;;;;1.50;1.27;;;;;;;13.51;72.65;98113.94;6039739;23;20031;-93
2024/03/30 00:34:59;;;;;;;1.63;1.25;;;;;;;13.54;73.02;98114.47;6070427;23;20068;-92
2024/03/30 00:37:54;;;;;;;1.88;1.10;;;;;;;13.51;71.24;98111.28;6020555;23;20027;-92
2024/03/30 00:40:21;;;;;;;1.27;1.08;;;;;;;13.55;72.90;98102.94;6019316;23;20403;-92
2024/03/30 00:42:47;;;;;;;2.45;1.33;;;;;;;13.56;72.95;98098.44;6015860;23;20027;-92
2024/03/30 00:48:59;;;;;;;1.90;1.27;;;;;;;13.58;72.65;98093.88;6069722;23;20051;-92
2024/03/30 00:51:30;;;;;;;2.72;1.30;;;;;;;13.55;71.44;98107.38;6043763;23;20018;-92
2024/03/30 00:53:56;;;;;;;1.65;1.23;;;;;;;13.55;72.38;98107.38;6015920;23;20023;-93
2024/03/30 00:56:21;;;;;;;1.92;1.23;;;;;;;13.54;72.65;98105.72;6019629;23;20029;-92
2024/03/30 01:02:02;;;;;;;1.33;1.20;;;;;;;13.52;72.82;98099.72;6039441;23;20027;-92
2024/03/30 01:04:48;;;;;;;1.23;1.13;;;;;;;13.46;71.01;98102.94;6020233;23;20071;-92
2024/03/30 01:07:14;;;;;;;1.17;1.08;;;;;;;13.49;72.85;98089.47;6017736;23;20454;-93
2024/03/30 01:13:20;;;;;;;1.00;0.90;;;;;;;13.46;72.98;98087.91;6067596;23;20074;-92
2024/03/30 01:16:27;;;;;;;2.10;1.20;;;;;;;13.39;71.46;98085.00;6015636;23;20024;-92
2024/03/30 01:18:52;;;;;;;1.60;1.05;;;;;;;13.45;73.03;98085.44;6039465;23;20075;-92
2024/03/30 01:21:18;;;;;;;2.83;1.10;;;;;;;13.44;73.04;98079.28;6018300;23;20023;-92
2024/03/30 01:23:44;;;;;;;1.70;1.00;;;;;;;13.43;73.17;98078.44;6039190;23;20090;-92
2024/03/30 01:26:18;;;;;;;1.58;1.27;;;;;;;13.41;72.26;98076.94;6016790;23;20023;-93
2024/03/30 01:28:44;;;;;;;2.83;1.52;;;;;;;13.45;73.65;98078.31;6015756;23;20451;-92
2024/03/30 01:31:13;;;;;;;2.03;1.40;;;;;;;13.43;72.72;98065.25;6040578;23;20027;-92
2024/03/30 01:33:39;;;;;;;3.17;1.40;;;;;;;13.46;73.25;98060.66;6015531;23;20023;-92
2024/03/30 01:36:06;;;;;;;1.48;1.30;;;;;;;13.47;73.45;98064.94;6015852;23;20023;-92
2024/03/30 01:45:13;;;;;;;1.83;1.20;;;;;;;13.48;73.25;98050.78;6040900;23;20023;-93
2024/03/30 01:47:39;;;;;;;1.83;1.30;;;;;;;13.46;73.23;98044.78;6039249;23;20024;-93
2024/03/30 01:53:52;;;;;;;1.25;1.08;;;;;;;13.45;73.41;98048.44;6068982;23;20146;-92
2024/03/30 02:00:07;;;;;;;3.40;1.10;;;;;;;13.42;73.36;98037.16;6068939;23;20025;-92
2024/03/30 02:03:10;;;;;;;1.60;1.40;;;;;;;13.37;71.62;98030.66;6015248;23;20027;-92
2024/03/30 02:05:36;;;;;;;1.30;1.20;;;;;;;13.39;73.26;98008.38;6038978;23;20023;-92
2024/03/30 02:08:03;;;;;;;2.20;1.40;;;;;;;13.38;73.16;98009.34;6015142;23;20594;-93
2024/03/30 02:10:53;;;;;;;3.17;1.38;;;;;;;13.33;71.90;98016.91;6015141;23;20027;-92
2024/03/30 02:13:19;;;;;;;1.73;1.40;;;;;;;13.37;73.26;98014.78;6017977;23;20024;-92
2024/03/30 02:16:13;;;;;;;1.10;1.00;;;;;;;13.29;71.90;98008.47;6015057;23;20097;-92
2024/03/30 02:18:52;;;;;;;1.40;1.25;;;;;;;13.29;71.79;97997.88;6014892;23;20526;-92
2024/03/30 02:21:18;;;;;;;2.80;1.20;;;;;;;13.33;73.44;98002.84;6017879;23;20023;-92
2024/03/30 02:28:05;;;;;;;1.15;1.05;;;;;;;13.28;71.89;97979.53;6068791;23;20087;-92
2024/03/30 02:31:09;;;;;;;1.02;0.93;;;;;;;13.28;72.15;97998.84;6015011;23;20027;-93
2024/03/30 02:33:35;;;;;;;4.30;1.35;;;;;;;13.32;73.78;97991.47;6015077;23;20023;-92
2024/03/30 02:36:02;;;;;;;2.45;1.02;;;;;;;13.31;73.62;97981.88;6015029;23;20023;-92
2024/03/30 02:42:15;;;;;;;1.38;0.95;;;;;;;13.33;74.00;97971.13;6065900;23;20026;-92
2024/03/30 02:45:07;;;;;;;1.75;1.00;;;;;;;13.28;72.37;97969.78;6019670;23;20474;-92
2024/03/30 02:47:33;;;;;;;1.40;1.10;;;;;;;13.31;74.10;97968.66;6014982;23;20019;-92
2024/03/30 02:50:55;;;;;;;1.85;1.00;;;;;;;13.26;72.64;97978.84;6038435;23;20059;-92
2024/03/30 02:53:20;;;;;;;1.35;0.90;;;;;;;13.28;74.18;97985.63;6018337;23;20034;-92
2024/03/30 02:55:46;;;;;;;1.10;1.00;;;;;;;13.27;73.95;97975.25;6014778;23;20024;-92
2024/03/30 03:01:39;;;;;;;1.50;1.00;;;;;;;13.26;74.22;97966.47;6038504;23;20030;-92
2024/03/30 03:04:05;;;;;;;1.88;1.27;;;;;;;13.25;74.23;97963.97;6015140;23;20380;-92
2024/03/30 03:06:44;;;;;;;1.23;1.10;;;;;;;13.20;72.88;97967.03;6014823;23;20455;-92
2024/03/30 03:09:10;;;;;;;1.80;1.00;;;;;;;13.22;74.15;97945.75;6016019;23;20438;-93
2024/03/30 03:11:35;;;;;;;2.17;1.20;;;;;;;13.20;73.95;97945.91;6038387;23;20031;-92
2024/03/30 03:14:07;;;;;;;1.45;1.20;;;;;;;13.14;73.27;97957.94;6014804;23;20027;-92
2024/03/30 03:16:34;;;;;;;2.92;1.42;;;;;;;13.14;73.63;97952.66;6014830;23;20032;-92
2024/03/30 03:18:59;;;;;;;1.50;1.40;;;;;;;13.11;73.71;97954.72;6015173;23;20027;-92
2024/03/30 03:22:01;;;;;;;1.60;1.30;;;;;;;13.01;72.55;97950.34;6018940;23;20395;-92
2024/03/30 03:27:36;;;;;;;1.55;1.40;;;;;;;12.95;73.93;97947.47;6038468;23;20082;-92
2024/03/30 03:30:01;;;;;;;1.77;1.40;;;;;;;12.88;73.91;97952.50;6015530;23;20027;-92
2024/03/30 03:36:13;;;;;;;1.33;1.23;;;;;;;12.76;74.18;97939.50;6070333;23;20050;-93
2024/03/30 03:38:58;;;;;;;1.98;1.40;;;;;;;12.67;73.43;97942.19;6016527;23;20363;-92
2024/03/30 03:41:23;;;;;;;4.00;1.73;;;;;;;12.67;74.65;97937.72;6020385;23;20023;-92
2024/03/30 03:43:49;;;;;;;3.00;2.03;;;;;;;12.62;74.75;97932.91;6016528;23;20030;-92
2024/03/30 03:46:37;;;;;;;2.80;1.80;;;;;;;12.53;73.77;97925.88;6018899;23;20023;-92
2024/03/30 03:49:02;;;;;;;2.70;1.95;;;;;;;12.55;74.87;97920.41;6016435;23;20027;-92
2024/03/30 03:51:30;;;;;;;4.45;2.13;;;;;;;12.50;75.07;97918.22;6016728;23;20024;-92
2024/03/30 03:54:11;;;;;;;4.03;1.90;;;;;;;12.42;74.16;97916.34;6016240;23;20027;-92
2024/03/30 03:56:36;;;;;;;2.95;1.73;;;;;;;12.45;75.25;97916.03;6039902;23;20023;-92
2024/03/30 04:02:49;;;;;;;4.15;2.35;;;;;;;12.40;75.39;97918.25;6062274;23;20038;-92
2024/03/30 04:05:24;;;;;;;3.28;2.80;;;;;;;12.32;74.97;97921.63;6018471;23;20027;-93
2024/03/30 04:07:51;;;;;;;2.97;2.67;;;;;;;12.32;75.76;97911.09;6016324;23;20023;-92
2024/03/30 04:10:18;;;;;;;3.30;2.80;;;;;;;12.31;76.03;97916.50;6018773;23;20030;-92
2024/03/30 04:16:02;;;;;;;6.28;3.22;;;;;;;12.27;75.62;97902.78;6039901;23;20023;-92
2024/03/30 04:18:30;;;;;;;4.38;3.97;;;;;;;12.29;76.07;97905.28;6016764;23;20083;-93
2024/03/30 04:32:48;;;;;;;5.43;4.88;;;;;;;12.19;75.78;97911.38;6069917;23;20091;-92
2024/03/30 04:35:14;;;;;;;5.95;4.70;;;;;;;12.21;76.82;97919.16;6018065;23;20145;-92
2024/03/30 04:37:40;;;;;;;6.05;5.03;;;;;;;12.19;77.13;97916.66;6015975;23;20027;-92
2024/03/30 04:47:33;;;;;;;6.93;5.53;;;;;;;12.17;76.57;97908.06;6069768;23;20109;-93
2024/03/30 04:50:16;;;;;;;7.45;6.53;;;;;;;12.11;75.87;97906.00;6039810;23;20081;-92
2024/03/30 04:52:43;;;;;;;7.50;6.07;;;;;;;12.14;76.59;97907.53;6016108;23;20019;-92
2024/03/30 04:55:08;;;;;;;7.10;6.15;;;;;;;12.11;76.68;97904.19;6016934;23;20027;-92
2024/03/30 04:57:59;;;;;;;7.68;6.72;;;;;;;12.06;76.00;97890.63;6015908;23;20027;-92
2024/03/30 05:00:25;;;;;;;7.38;6.60;;;;;;;12.07;76.93;97889.63;6043461;23;20026;-92
2024/03/30 05:02:50;;;;;;;9.07;7.18;;;;;;;12.05;76.93;97886.34;6015544;23;20023;-92
2024/03/30 05:12:17;;;;;;;8.20;7.35;;;;;;;11.97;77.05;97880.91;6041959;23;20027;-93
2024/03/30 05:14:43;;;;;;;7.80;6.88;;;;;;;11.93;77.24;97890.88;6015748;23;20042;-93
2024/03/30 05:21:02;;;;;;;7.05;6.25;;;;;;;11.84;76.59;97887.31;6069459;23;20376;-93
2024/03/30 05:24:08;;;;;;;8.73;7.53;;;;;;;11.81;76.61;97884.94;6020185;23;20366;-93
2024/03/30 05:26:34;;;;;;;7.97;7.05;;;;;;;11.83;77.52;97877.75;6015663;23;20042;-93
2024/03/30 05:29:00;;;;;;;8.27;7.07;;;;;;;11.80;77.53;97872.75;6015675;23;20459;-93
2024/03/30 05:31:54;;;;;;;8.95;7.80;;;;;;;11.75;77.09;97877.63;6043718;23;20058;-93
2024/03/30 05:34:20;;;;;;;10.65;7.45;;;;;;;11.79;77.85;97873.75;6019452;23;20019;-93
2024/03/30 05:40:27;;;;;;;8.68;7.07;;;;;;;11.78;78.28;97861.50;6069533;23;20390;-93
2024/03/30 05:46:39;;;;;;;8.68;7.43;;;;;;;11.79;78.63;97854.44;6069294;23;20067;-93
2024/03/30 05:52:46;;;;;;;8.85;7.07;;;;;;;11.79;78.85;97863.19;6068715;23;20034;-93
2024/03/30 05:58:58;;;;;;;8.40;7.60;;;;;;;11.82;79.27;97851.53;6069072;23;20022;-93
2024/03/30 06:05:12;;;;;;;8.38;7.15;;;;;;;11.85;79.57;97852.06;6069196;23;20021;-93
2024/03/30 06:11:25;;;;;;;7.88;6.57;;;;;;;11.92;79.64;97854.16;6069312;23;20087;-96
2024/03/30 06:14:21;;;;;;;9.07;6.68;;;;;;;11.92;79.15;97859.41;6017299;23;20098;-91
2024/03/30 06:16:48;;;;;;;7.50;6.70;;;;;;;11.99;79.86;97849.94;6015569;23;20031;-94
2024/03/30 06:19:13;;;;;;;7.20;6.50;;;;;;;12.02;80.03;97848.81;6041315;23;20027;-93
2024/03/30 06:29:19;;;;;;;6.60;5.63;;;;;;;12.15;79.37;97846.72;6068967;23;20083;-94
2024/03/30 06:35:34;;;;;;;6.63;5.57;;;;;;;12.27;80.11;97851.81;6068962;23;20066;-93
2024/03/30 06:48:43;;;;;;;5.55;5.05;;;;;;;12.51;80.41;97846.84;6068950;23;20465;-94
2024/03/30 07:10:11;;;;;;;5.95;4.55;;;;;;;12.86;78.78;97839.09;6068787;23;20346;-89
2024/03/30 07:12:37;;;;;;;5.95;4.63;;;;;;;12.96;80.08;97832.91;6044634;23;20047;-90
2024/03/30 07:15:23;;;;;;;7.22;4.50;;;;;;;12.97;78.74;97831.97;6044784;23;20027;-89
2024/03/30 07:17:49;;;;;;;7.07;4.80;;;;;;;13.05;80.14;97824.13;6044558;23;20074;-89
2024/03/30 07:20:15;;;;;;;5.53;4.65;;;;;;;13.08;79.98;97825.63;6046794;23;20023;-89
2024/03/30 07:22:47;;;;;;;7.32;4.40;;;;;;;13.10;78.90;97831.56;6044535;23;20026;-89
2024/03/30 07:25:12;;;;;;;5.60;4.22;;;;;;;13.18;79.93;97822.88;6070123;23;20023;-89
2024/03/30 07:27:46;;;;;;;8.43;4.90;;;;;;;13.19;78.81;97822.72;6068493;23;20082;-89
2024/03/30 07:30:12;;;;;;;5.15;4.43;;;;;;;13.27;79.89;97820.16;6046000;23;20033;-89
2024/03/30 07:32:52;;;;;;;5.88;4.07;;;;;;;13.31;78.63;97831.28;6044613;23;20023;-89
2024/03/30 07:35:18;;;;;;;5.82;4.45;;;;;;;13.39;80.11;97818.09;6047151;23;20033;-89
2024/03/30 07:37:43;;;;;;;4.68;4.22;;;;;;;13.46;80.29;97822.78;6044609;23;20026;-89
2024/03/30 07:43:55;;;;;;;4.28;3.88;;;;;;;13.64;80.03;97826.22;6098722;23;20124;-89
2024/03/30 07:46:33;;;;;;;5.53;4.20;;;;;;;13.65;78.46;97814.66;6048057;23;20031;-89
2024/03/30 07:48:59;;;;;;;5.50;4.35;;;;;;;13.77;80.08;97820.53;6068327;23;20023;-89
2024/03/30 07:51:24;;;;;;;4.70;4.03;;;;;;;13.84;79.89;97819.91;6048307;23;20028;-89
2024/03/30 07:54:16;;;;;;;6.50;4.00;;;;;;;13.86;77.90;97828.53;6048945;23;20520;-89
2024/03/30 07:56:42;;;;;;;5.15;3.53;;;;;;;13.97;79.80;97830.88;6068102;23;20027;-89
2024/03/30 07:59:07;;;;;;;5.40;3.90;;;;;;;14.02;79.95;97833.06;6044954;23;20054;-89
2024/03/30 08:01:56;;;;;;;5.22;3.97;;;;;;;14.05;77.82;97832.75;6044184;23;20335;-89
2024/03/30 08:04:21;;;;;;;5.18;3.42;;;;;;;14.18;79.89;97835.81;6047679;23;20031;-89
2024/03/30 08:12:31;;;;;;;5.05;3.92;;;;;;;14.44;78.42;97826.94;6070703;23;20018;-91
2024/03/30 08:14:56;;;;;;;4.63;3.22;;;;;;;14.62;80.37;97825.19;6015584;23;20400;-91
2024/03/30 08:17:22;;;;;;;4.85;3.13;;;;;;;14.72;80.34;97824.06;6018752;23;20028;-92
2024/03/30 08:20:28;;;;;;;4.03;3.00;;;;;;;14.81;77.78;97824.94;6039115;23;20083;-91
2024/03/30 08:22:53;;;;;;;6.95;2.72;;;;;;;14.98;79.99;97831.09;6015209;23;20027;-92
2024/03/30 08:25:19;;;;;;;5.47;2.70;;;;;;;15.12;79.84;97831.44;6018470;23;20030;-91
2024/03/30 08:28:07;;;;;;;5.88;2.80;;;;;;;15.21;76.69;97833.09;6015438;23;20339;-91
2024/03/30 08:30:33;;;;;;;7.32;2.30;;;;;;;15.41;79.97;97826.63;6015076;23;20351;-91
2024/03/30 08:32:58;;;;;;;6.93;2.20;;;;;;;15.57;79.42;97833.75;6038625;23;20050;-91
2024/03/30 08:38:32;;;;;;;8.98;2.50;;;;;;;15.90;78.06;97846.97;6038581;23;20019;-89
2024/03/30 08:41:18;;;;;;;8.50;2.97;;;;;;;15.97;74.15;97853.28;6014971;23;20027;-91
2024/03/30 08:43:44;;;;;;;9.50;2.33;;;;;;;16.12;76.87;97857.88;6014736;23;20031;-91
2024/03/30 08:46:17;;;;;;;6.75;2.65;;;;;;;16.17;73.86;97852.88;6039531;23;20028;-91
2024/03/30 08:48:42;;;;;;;;;;;;;;;16.24;74.27;97861.84;6015492;23;20773;-91
2024/03/30 08:51:08;;;;;;;5.30;2.47;;;;;;;16.37;76.18;97855.16;6015712;23;19954;-91
2024/03/30 08:53:33;;;;;;;6.82;2.42;;;;;;;16.41;75.75;97848.50;6014607;23;20031;-89
2024/03/30 08:56:07;;;;;;;4.85;2.30;;;;;;;16.40;73.29;97874.22;6014799;23;20035;-89
2024/03/30 08:58:32;;;;;;;7.47;2.15;;;;;;;16.48;75.45;97865.38;6014627;23;20030;-89
2024/03/30 09:01:01;;;;;;;8.88;3.03;;;;;;;16.51;73.33;97880.97;6014664;23;20023;-88
2024/03/30 09:03:27;;;;;;;8.52;2.03;;;;;;;16.57;74.98;97875.97;6019120;23;20019;-88
2024/03/30 09:05:53;;;;;;;7.60;2.17;;;;;;;16.59;73.99;97840.25;6014646;23;20035;-89
2024/03/30 09:08:19;;;;;;;12.10;2.88;;;;;;;16.63;74.03;97838.09;6017944;23;20027;-90
2024/03/30 09:10:51;;;;;;;11.40;2.05;;;;;;;16.64;71.15;97850.38;6038293;23;20154;-89
2024/03/30 09:13:32;;;;;;;11.90;2.30;;;;;;;16.67;70.75;97873.91;6016280;23;20023;-91
2024/03/30 09:15:58;;;;;;;10.02;2.65;;;;;;;16.77;73.49;97873.72;6037140;23;20027;-90
2024/03/30 09:18:24;;;;;;;5.80;1.88;;;;;;;16.80;73.60;97854.78;6017797;23;20027;-88
2024/03/30 09:21:12;;;;;;;12.52;2.13;;;;;;;16.82;70.51;97838.66;6013674;23;20023;-88
2024/03/30 09:23:38;;;;;;;21.30;2.78;;;;;;;16.92;73.15;97825.97;6013530;23;20328;-88
2024/03/30 09:26:03;;;;;;;16.35;2.65;;;;;;;16.99;73.38;97832.22;6037373;23;20114;-88
2024/03/30 09:28:37;;;;;;;8.70;2.55;;;;;;;17.04;69.25;97827.25;6018516;23;20027;-88
2024/03/30 09:31:03;;;;;;;10.45;2.10;;;;;;;17.17;73.21;97821.34;6018417;23;20027;-88
2024/03/30 09:33:31;;;;;;;18.77;2.55;;;;;;;17.25;71.13;97812.47;6042019;23;20025;-88
2024/03/30 09:35:58;;;;;;;10.10;2.28;;;;;;;17.38;73.09;97824.34;6018289;23;20027;-88
2024/03/30 09:38:43;;;;;;;20.77;3.05;;;;;;;17.47;69.04;97825.91;6018511;23;20152;-88
2024/03/30 09:41:12;;;;;;;14.73;2.50;;;;;;;17.64;71.21;97831.91;6014564;23;20039;-88
2024/03/30 09:43:39;;;;;;;8.90;2.13;;;;;;;17.78;70.91;97822.28;6013615;23;20027;-88
2024/03/30 09:46:07;;;;;;;16.48;2.50;;;;;;;17.94;71.91;97815.16;6014116;23;20031;-88
2024/03/30 09:48:33;;;;;;;11.18;2.13;;;;;;;18.10;72.24;97820.28;6037318;23;20075;-88
2024/03/30 09:51:01;;;;;;;14.15;2.60;;;;;;;18.26;70.53;97817.63;6013446;23;20027;-88
2024/03/30 09:53:27;;;;;;;15.20;2.42;;;;;;;18.44;71.86;97814.59;6041602;23;20019;-88
2024/03/30 09:55:57;;;;;;;14.35;2.30;;;;;;;18.59;68.92;97814.53;6013591;23;20027;-87
2024/03/30 09:58:25;;;;;;;10.77;2.05;;;;;;;18.78;69.25;97815.78;6017483;23;20386;-88
2024/03/30 10:00:51;;;;;;;18.45;3.03;;;;;;;18.95;69.14;97813.69;6037346;23;20408;-88
2024/03/30 10:03:18;;;;;;;16.98;2.50;;;;;;;19.11;70.08;97812.63;6016000;23;20024;-88
2024/03/30 10:05:57;;;;;;;14.07;2.75;;;;;;;19.21;65.99;97812.31;6013651;23;20027;-88
2024/03/30 10:08:26;;;;;;;15.35;2.20;;;;;;;19.36;67.97;97801.56;6017450;23;20023;-88
2024/03/30 10:10:57;;;;;;;15.38;2.15;;;;;;;19.46;66.67;97805.75;6037114;23;20027;-88
2024/03/30 10:17:17;;;;;;;13.55;2.42;;;;;;;19.67;64.67;97802.22;6020573;23;1120252;-88
2024/03/30 10:19:43;;;;;;;17.63;3.35;;;;;;;19.78;67.53;97806.19;6014530;23;20028;-88
2024/03/30 10:22:09;;;;;;;13.25;2.13;;;;;;;19.85;66.97;97804.38;6015455;23;20030;-88
2024/03/30 10:24:36;;;;;;;18.55;2.75;;;;;;;19.90;65.11;97807.31;6014474;23;20461;-89
2024/03/30 10:27:02;;;;;;;12.73;2.63;;;;;;;19.98;65.56;97805.47;6014454;23;20027;-88
2024/03/30 10:29:50;;;;;;;14.93;2.97;;;;;;;19.97;62.62;97806.50;6042701;23;20058;-88
2024/03/30 10:32:16;;;;;;;12.80;2.50;;;;;;;20.07;65.28;97814.19;6016875;23;20399;-88
2024/03/30 10:34:42;;;;;;;15.23;2.90;;;;;;;20.09;65.18;97804.13;6014353;23;20079;-88
2024/03/30 10:37:09;;;;;;;10.73;2.45;;;;;;;20.13;64.30;97816.06;6038979;23;20059;-88
2024/03/30 10:39:34;;;;;;;16.45;3.10;;;;;;;20.20;64.97;97811.59;6014331;23;20042;-88
2024/03/30 10:42:01;;;;;;;14.63;2.83;;;;;;;20.25;64.11;97803.78;6014292;23;20027;-87
2024/03/30 10:44:28;;;;;;;13.73;2.72;;;;;;;20.33;64.57;97808.13;6042319;23;20023;-88
2024/03/30 10:47:10;;;;;;;16.42;2.55;;;;;;;20.37;61.27;97805.91;6038034;23;20031;-88
2024/03/30 10:49:36;;;;;;;17.13;3.22;;;;;;;20.49;64.37;97815.00;6014303;23;20023;-88
2024/03/30 10:52:04;;;;;;;19.20;3.22;;;;;;;20.52;61.33;97811.91;6037941;23;20019;-88
2024/03/30 10:54:30;;;;;;;14.23;2.85;;;;;;;20.59;63.77;97813.81;6014116;23;20028;-88
2024/03/30 10:56:56;;;;;;;19.05;3.13;;;;;;;20.61;63.17;97820.59;6014256;23;20027;-88
2024/03/30 10:59:25;;;;;;;20.65;3.55;;;;;;;20.63;60.65;97829.22;6017952;23;20024;-86
2024/03/30 11:01:51;;;;;;;13.93;2.67;;;;;;;20.69;63.35;97835.63;6014174;23;20030;-89
2024/03/30 11:04:18;;;;;;;16.40;3.22;;;;;;;20.73;62.16;97838.69;6040512;23;20350;-88
2024/03/30 11:07:13;;;;;;;14.00;2.50;;;;;;;20.73;59.72;97828.00;6014102;23;20031;-88
2024/03/30 11:12:43;;;;;;;28.58;4.10;;;;;;;20.90;61.18;97825.84;6037675;23;20020;-88
2024/03/30 11:15:28;;;;;;;14.40;3.28;;;;;;;20.90;57.14;97829.31;6015032;23;20023;-88
2024/03/30 11:18:02;;;;;;;14.68;3.10;;;;;;;20.97;57.34;97815.97;6037808;23;20050;-87
2024/03/30 11:24:00;;;;;;;17.90;3.13;;;;;;;21.15;59.94;97817.25;6034881;23;20454;-88
2024/03/30 11:26:26;;;;;;;16.77;3.53;;;;;;;21.30;62.52;97809.81;6042147;23;20023;-88
2024/03/30 11:29:01;;;;;;;18.08;3.55;;;;;;;21.38;59.72;97819.50;6037748;23;20035;-88
2024/03/30 11:31:48;;;;;;;22.45;3.95;;;;;;;21.50;56.18;97826.91;6018827;23;20027;-88
2024/03/30 11:34:28;;;;;;;21.92;4.10;;;;;;;21.60;56.17;97827.31;6039551;23;20034;-88
2024/03/30 11:36:56;;;;;;;19.77;4.15;;;;;;;21.66;56.54;97817.63;6019157;23;20038;-88
2024/03/30 11:39:29;;;;;;;29.38;4.00;;;;;;;21.66;54.94;97823.00;6041317;23;20031;-88
2024/03/30 11:44:41;;;;;;;23.85;4.35;;;;;;;21.72;59.78;97820.34;6037700;23;20024;-88
2024/03/30 11:47:07;;;;;;;39.30;5.75;;;;;;;21.76;57.14;97810.06;6038526;23;20030;-88
2024/03/30 11:49:33;;;;;;;33.17;6.07;;;;;;;21.81;55.73;97814.75;6037862;23;20466;-88
2024/03/30 11:51:59;;;;;;;38.85;6.03;;;;;;;21.86;54.79;97812.28;6014925;23;20023;-88
2024/03/30 11:54:34;;;;;;;27.58;5.13;;;;;;;21.86;50.61;97806.91;6020442;23;20023;-88
2024/03/30 11:57:13;;;;;;;37.05;5.15;;;;;;;21.87;52.76;97817.44;6015918;23;20023;-88
2024/03/30 11:59:43;;;;;;;34.03;6.13;;;;;;;21.87;50.24;97813.94;6015761;23;20031;-88
2024/03/30 12:02:13;;;;;;;40.17;5.80;;;;;;;21.79;48.51;97801.56;6016838;23;20023;-88
2024/03/30 12:04:44;;;;;;;31.63;5.70;;;;;;;21.70;49.21;97797.44;6015765;23;20027;-88
2024/03/30 12:07:10;;;;;;;38.78;5.80;;;;;;;21.67;52.97;97797.84;6040564;23;20023;-88
2024/03/30 12:09:36;;;;;;;39.28;5.90;;;;;;;21.61;52.75;97795.00;6039370;23;20035;-88
2024/03/30 12:15:28;;;;;;;31.67;4.80;;;;;;;21.77;55.77;97792.13;6039155;23;20023;-87
2024/03/30 12:17:55;;;;;;;38.10;5.47;;;;;;;21.82;54.62;97787.78;6039178;23;20077;-88
2024/03/30 12:20:29;;;;;;;36.97;5.72;;;;;;;21.85;50.18;97791.88;6019029;23;20421;-88
2024/03/30 12:22:55;;;;;;;38.30;6.57;;;;;;;21.90;53.46;97786.72;6015489;23;20027;-88
2024/03/30 12:25:24;;;;;;;37.83;5.75;;;;;;;21.90;53.39;97789.41;6019034;23;20024;-89
2024/03/30 12:27:53;;;;;;;49.58;6.47;;;;;;;21.84;46.17;97800.97;6015416;23;20027;-88
2024/03/30 12:30:18;;;;;;;36.78;7.10;;;;;;;21.77;50.24;97792.13;6041922;23;20030;-88
2024/03/30 12:32:45;;;;;;;31.42;6.43;;;;;;;21.68;50.39;97791.50;6015564;23;20459;-88
2024/03/30 12:35:19;;;;;;;43.05;6.50;;;;;;;21.55;45.57;97806.53;6016428;23;20081;-88
2024/03/30 12:37:46;;;;;;;52.70;8.07;;;;;;;21.51;49.95;97783.06;6015461;23;20023;-88
2024/03/30 12:40:11;;;;;;;51.28;7.85;;;;;;;21.39;47.12;97785.53;6017154;23;20075;-88
2024/03/30 12:42:58;;;;;;;48.00;7.88;;;;;;;21.23;43.54;97792.94;6015306;23;20019;-88
2024/03/30 12:45:24;;;;;;;43.92;6.45;;;;;;;21.24;49.67;97788.41;6042969;23;20461;-88
2024/03/30 12:47:54;;;;;;;48.85;8.48;;;;;;;21.11;46.44;97800.75;6015372;23;20027;-88
2024/03/30 12:53:15;;;;;;;44.33;8.43;;;;;;;20.92;47.28;97800.53;6095809;23;20029;-87
2024/03/30 12:55:41;;;;;;;60.33;8.77;;;;;;;20.82;46.54;97808.09;6042545;23;20045;-87
2024/03/30 12:58:07;;;;;;;44.85;6.68;;;;;;;20.76;47.90;97815.09;6042475;23;20417;-86
2024/03/30 13:00:33;;;;;;;62.53;8.05;;;;;;;20.66;46.44;97811.94;6065437;23;20380;-86
2024/03/30 13:03:03;;;;;;;61.50;8.55;;;;;;;20.59;46.21;97821.81;6065688;23;20456;-86
2024/03/30 13:05:33;;;;;;;38.75;7.10;;;;;;;20.55;47.22;97808.84;6041895;23;20030;-86
2024/03/30 13:08:01;;;;;;;56.00;8.68;;;;;;;20.51;46.42;97806.75;6066280;23;20464;-86
2024/03/30 13:10:28;;;;;;;50.65;8.05;;;;;;;20.43;46.93;97808.59;6070789;23;20033;-86
2024/03/30 13:12:56;;;;;;;61.78;8.65;;;;;;;20.37;46.04;97801.38;6042092;23;20019;-86
2024/03/30 13:15:22;;;;;;;54.22;7.53;;;;;;;20.36;47.14;97806.91;6068858;23;20023;-87
2024/03/30 13:17:47;;;;;;;49.15;7.15;;;;;;;20.33;47.31;97826.84;6041598;23;20029;-86
2024/03/30 13:20:14;;;;;;;49.83;7.60;;;;;;;20.30;47.41;97816.56;6043997;23;20337;-86
2024/03/30 13:22:44;;;;;;;43.03;7.35;;;;;;;20.25;47.87;97817.16;6041422;23;20020;-87
2024/03/30 13:25:12;;;;;;;64.78;8.10;;;;;;;20.22;46.82;97825.56;6043370;23;20690;-86
2024/03/30 13:27:38;;;;;;;45.50;7.60;;;;;;;20.21;48.07;97807.88;6065441;23;20023;-86
2024/03/30 13:30:06;;;;;;;60.28;8.25;;;;;;;20.12;43.78;97836.63;6066302;23;20086;-86
2024/03/30 13:32:36;;;;;;;59.38;8.57;;;;;;;20.07;43.11;97796.31;6042898;23;20025;-86
2024/03/30 13:35:09;;;;;;;64.75;7.47;;;;;;;20.05;45.01;97791.19;6041504;23;20030;-85
2024/03/30 13:37:40;;;;;;;59.63;7.82;;;;;;;20.05;44.85;97803.69;6043089;23;20038;-86
2024/03/30 13:40:06;;;;;;;49.45;7.03;;;;;;;20.05;46.60;97809.03;6042917;23;20026;-86
2024/03/30 13:42:32;;;;;;;59.22;8.25;;;;;;;20.03;46.88;97821.75;6066343;23;20476;-86
2024/03/30 13:44:58;;;;;;;53.85;8.02;;;;;;;20.00;46.62;97833.66;6042712;23;20110;-86
2024/03/30 13:47:24;;;;;;;51.97;8.20;;;;;;;19.97;46.56;97827.88;6046844;23;20081;-86
2024/03/30 13:49:53;;;;;;;46.90;6.80;;;;;;;19.96;46.06;97828.91;6041950;23;20094;-87
2024/03/30 13:52:19;;;;;;;53.28;7.38;;;;;;;19.95;47.84;97830.72;6069130;23;20023;-87
2024/03/30 13:54:45;;;;;;;60.08;7.47;;;;;;;19.93;47.71;97827.44;6042288;23;20027;-87
2024/03/30 13:57:15;;;;;;;36.40;6.72;;;;;;;19.93;47.85;97814.09;6044223;23;20030;-87
2024/03/30 13:59:41;;;;;;;53.50;8.18;;;;;;;19.92;48.22;97826.59;6065532;23;20030;-86
2024/03/30 14:02:13;;;;;;;72.07;8.63;;;;;;;19.88;45.61;97820.00;6042446;23;20086;-86
2024/03/30 14:04:39;;;;;;;62.95;8.23;;;;;;;19.89;47.25;97812.84;6041926;23;20029;-86
2024/03/30 14:07:05;;;;;;;38.83;6.38;;;;;;;19.88;47.92;97836.03;6042132;23;20361;-86
2024/03/30 14:09:31;;;;;;;40.85;7.25;;;;;;;19.85;47.53;97823.06;6042131;23;20035;-87
2024/03/30 14:11:57;;;;;;;48.20;6.80;;;;;;;19.83;47.03;97817.09;6066878;23;20360;-87
2024/03/30 14:14:22;;;;;;;55.38;7.72;;;;;;;19.84;48.13;97818.75;6045000;23;20030;-87
2024/03/30 14:16:49;;;;;;;50.03;7.43;;;;;;;19.83;47.09;97824.28;6066106;23;20033;-87
2024/03/30 14:19:14;;;;;;;45.50;7.47;;;;;;;19.81;47.23;97818.31;6044565;23;20030;-86
2024/03/30 14:21:40;;;;;;;50.90;8.35;;;;;;;19.79;47.07;97827.34;6042422;23;20070;-87
2024/03/30 14:24:06;;;;;;;42.08;7.10;;;;;;;19.78;47.78;97841.69;6066103;23;20023;-88
2024/03/30 14:26:32;;;;;;;61.10;7.10;;;;;;;19.73;46.73;97835.31;6042383;23;20030;-86
2024/03/30 14:28:58;;;;;;;41.03;6.88;;;;;;;19.73;47.08;97838.78;6066214;23;20102;-86
2024/03/30 14:31:24;;;;;;;42.58;6.10;;;;;;;19.66;46.41;97833.41;6070572;23;20400;-87
2024/03/30 14:33:49;;;;;;;62.47;7.00;;;;;;;19.66;46.96;97819.22;6041980;23;20139;-87
2024/03/30 14:36:25;;;;;;;51.58;6.50;;;;;;;19.65;47.54;97814.91;6045136;23;20030;-87
2024/03/30 14:38:52;;;;;;;44.30;6.45;;;;;;;19.63;47.69;97833.78;6042243;23;20109;-86
2024/03/30 14:41:18;;;;;;;32.42;5.00;;;;;;;19.62;48.01;97834.81;6069474;23;20036;-86
2024/03/30 14:43:44;;;;;;;41.95;6.75;;;;;;;19.60;47.59;97839.53;6043133;23;20025;-86
2024/03/30 14:46:10;;;;;;;36.85;6.28;;;;;;;19.60;48.33;97836.03;6043812;23;20026;-88
2024/03/30 14:48:36;;;;;;;40.40;6.22;;;;;;;19.58;48.50;97836.22;6041832;23;20034;-86
2024/03/30 14:51:02;;;;;;;51.92;6.90;;;;;;;19.60;49.59;97836.88;6064765;23;20023;-86
2024/03/30 14:53:27;;;;;;;35.20;5.75;;;;;;;19.59;49.04;97840.53;6070352;23;20042;-87
2024/03/30 14:55:58;;;;;;;41.67;6.60;;;;;;;19.57;48.48;97847.91;6064846;23;20483;-86